createdAt,value
2023-04-04T00:27:31.030Z,3.70
2023-04-04T04:27:38.841Z,2.10
2023-04-04T05:24:34.724Z,2.20
2023-04-04T05:29:36.656Z,2.10
2023-04-04T05:34:38.674Z,2.10
2023-04-04T05:39:40.730Z,2.00
2023-04-04T05:44:42.739Z,2.00
2023-04-04T05:49:44.556Z,2.00
2023-04-04T05:54:46.846Z,2.10
2023-04-04T05:59:48.881Z,2.10
2023-04-04T06:04:50.718Z,2.00
2023-04-04T06:09:52.585Z,1.90
2023-04-04T06:14:54.430Z,1.90
2023-04-04T06:19:56.619Z,1.90
2023-04-04T06:24:58.596Z,1.90
2023-04-04T06:30:00.527Z,1.90
2023-04-04T06:35:02.369Z,2.00
2023-04-04T06:40:04.426Z,2.10
2023-04-04T06:45:06.805Z,2.10
2023-04-04T06:50:09.354Z,2.20
2023-04-04T06:55:11.786Z,2.30
2023-04-04T07:00:14.404Z,2.40
2023-04-04T07:05:18.128Z,2.50
2023-04-04T07:10:21.136Z,2.60
2023-04-04T07:15:23.200Z,2.70
2023-04-04T07:20:26.968Z,2.80
2023-04-04T07:25:28.850Z,2.90
2023-04-04T07:30:32.902Z,3.10
2023-04-04T07:35:35.100Z,3.10
2023-04-04T07:40:37.416Z,3.20
2023-04-04T07:45:39.684Z,3.30
2023-04-04T07:50:41.672Z,3.40
2023-04-04T07:55:43.621Z,3.50
2023-04-04T08:00:45.623Z,3.60
2023-04-04T08:05:47.456Z,3.70
2023-04-04T08:10:49.396Z,3.90
2023-04-04T08:15:51.532Z,4.00
2023-04-04T08:20:53.592Z,4.10
2023-04-04T08:25:55.431Z,4.20
2023-04-04T08:30:57.715Z,4.40
2023-04-04T08:35:59.797Z,4.50
2023-04-04T08:41:01.770Z,4.60
2023-04-04T08:46:04.473Z,4.70
2023-04-04T08:51:09.211Z,4.90
2023-04-04T08:56:11.314Z,5.00
2023-04-04T09:01:13.814Z,5.10
2023-04-04T09:06:16.613Z,5.30
2023-04-04T09:11:20.581Z,5.60
2023-04-04T09:16:23.630Z,5.80
2023-04-04T09:21:26.411Z,6.00
2023-04-04T09:26:28.354Z,6.00
2023-04-04T09:31:30.342Z,6.20
2023-04-04T09:36:32.636Z,6.40
2023-04-04T09:41:34.699Z,6.50
2023-04-04T09:46:37.796Z,6.50
2023-04-04T09:51:41.493Z,6.60
2023-04-04T09:56:44.939Z,6.80
2023-04-04T10:01:47.183Z,6.90
2023-04-04T10:06:49.173Z,7.10
2023-04-04T10:11:51.020Z,7.20
2023-04-04T10:16:56.898Z,7.30
2023-04-04T10:21:59.693Z,7.60
2023-04-04T10:27:01.670Z,7.70
2023-04-04T10:32:10.018Z,8.00
2023-04-04T10:37:27.288Z,8.30
2023-04-04T10:42:33.491Z,8.70
2023-04-04T10:47:36.107Z,8.90
2023-04-04T10:52:39.850Z,9.20
2023-04-04T10:57:52.856Z,9.50
2023-04-04T11:03:02.293Z,9.60
2023-04-04T11:08:08.721Z,10.20
2023-04-04T11:13:14.563Z,10.50
2023-04-04T11:18:30.702Z,10.80
2023-04-04T11:23:50.370Z,11.10
2023-04-04T11:28:53.470Z,11.20
2023-04-04T11:33:57.958Z,11.10
2023-04-04T11:39:00.069Z,11.10
2023-04-04T11:44:09.362Z,11.20
2023-04-04T11:49:12.007Z,11.20
2023-04-04T11:54:15.749Z,11.50
2023-04-04T11:59:19.417Z,11.80
2023-04-04T12:04:22.697Z,12.30
2023-04-04T12:09:34.246Z,13.10
2023-04-04T12:14:36.107Z,13.30
2023-04-04T12:19:38.947Z,13.80
2023-04-04T12:24:41.258Z,14.10
2023-04-04T12:29:45.587Z,14.10
2023-04-04T12:34:49.968Z,14.60
2023-04-04T12:39:53.039Z,14.70
2023-04-04T12:44:55.429Z,15.10
2023-04-04T12:49:57.374Z,15.10
2023-04-04T12:55:08.151Z,15.10
2023-04-04T13:00:13.923Z,15.40
2023-04-04T13:05:17.947Z,16.00
2023-04-04T13:10:21.463Z,15.90
2023-04-04T13:15:23.876Z,16.00
2023-04-04T13:20:26.784Z,16.60
2023-04-04T13:25:28.609Z,17.30
2023-04-04T13:30:30.581Z,17.30
2023-04-04T13:35:32.723Z,16.80
2023-04-04T13:40:36.387Z,16.70
2023-04-04T13:45:38.801Z,16.50
2023-04-04T13:50:43.544Z,16.20
2023-04-04T13:56:01.494Z,16.30
2023-04-04T14:01:09.359Z,16.70
2023-04-04T14:06:11.413Z,16.70
2023-04-04T14:11:16.672Z,16.50
2023-04-04T14:16:18.732Z,16.40
2023-04-04T14:21:20.831Z,16.60
2023-04-04T14:26:22.725Z,16.80
2023-04-04T14:31:24.751Z,17.30
2023-04-04T14:36:26.842Z,17.30
2023-04-04T14:41:29.157Z,17.00
2023-04-04T14:46:31.225Z,16.90
2023-04-04T14:51:33.369Z,17.10
2023-04-04T14:56:36.314Z,17.30
2023-04-04T15:01:38.440Z,17.20
2023-04-04T15:06:40.597Z,16.60
2023-04-04T15:11:42.512Z,16.00
2023-04-04T15:16:44.478Z,15.80
2023-04-04T15:21:48.003Z,15.60
2023-04-04T15:26:49.892Z,15.50
2023-04-04T15:31:51.961Z,15.40
2023-04-04T15:36:54.444Z,14.70
2023-04-04T15:41:57.001Z,13.90
2023-04-04T15:46:58.816Z,13.50
2023-04-04T15:52:01.488Z,13.20
2023-04-04T15:57:03.463Z,12.80
2023-04-04T16:02:06.567Z,12.60
2023-04-04T16:07:08.478Z,12.40
2023-04-04T16:12:10.613Z,12.40
2023-04-04T16:17:12.436Z,12.30
2023-04-04T16:22:15.490Z,12.20
2023-04-04T16:27:17.441Z,12.10
2023-04-04T16:32:19.367Z,11.70
2023-04-04T16:37:23.323Z,11.40
2023-04-04T16:42:25.310Z,11.30
2023-04-04T16:47:28.278Z,11.20
2023-04-04T16:52:31.200Z,11.10
2023-04-04T16:57:33.093Z,11.00
2023-04-04T17:02:34.941Z,10.70
2023-04-04T17:07:36.857Z,10.70
2023-04-04T17:12:39.455Z,10.60
2023-04-04T17:17:42.454Z,10.50
2023-04-04T17:22:45.810Z,10.50
2023-04-04T17:27:47.746Z,10.40
2023-04-04T17:32:51.434Z,10.30
2023-04-04T17:37:54.574Z,10.30
2023-04-04T17:42:57.636Z,10.30
2023-04-04T17:47:59.588Z,10.30
2023-04-04T17:53:04.354Z,10.10
2023-04-04T17:58:08.928Z,10.00
2023-04-04T18:03:11.950Z,10.00
2023-04-04T18:08:15.231Z,9.80
2023-04-04T18:13:18.582Z,9.80
2023-04-04T18:18:21.368Z,9.70
2023-04-04T18:23:24.471Z,9.60
2023-04-04T18:28:26.646Z,9.60
2023-04-04T18:33:40.786Z,9.50
2023-04-04T18:44:53.348Z,9.60
2023-04-04T18:50:47.337Z,9.60
2023-04-04T19:32:41.374Z,9.40
2023-04-04T19:38:03.011Z,9.30
2023-04-04T19:49:21.137Z,9.00
2023-04-04T20:00:52.321Z,8.80
2023-04-04T20:06:52.025Z,8.70
2023-04-04T20:17:52.936Z,8.40
2023-04-04T20:23:57.896Z,8.30
2023-04-04T20:46:47.772Z,7.70
2023-04-04T20:52:27.497Z,7.50
2023-04-04T20:57:33.181Z,7.50
2023-04-04T21:08:30.731Z,7.50
2023-04-04T21:14:07.103Z,7.50
2023-04-04T21:19:31.701Z,7.40
2023-04-04T21:25:00.699Z,7.30
2023-04-04T21:31:01.618Z,7.30
2023-04-04T21:36:32.131Z,7.20
2023-04-04T21:47:47.195Z,7.00
2023-04-04T21:53:12.347Z,6.90
2023-04-04T21:58:27.032Z,6.80
2023-04-04T22:03:44.059Z,6.80
2023-04-04T22:08:57.710Z,6.60
2023-04-04T22:14:11.677Z,6.40
2023-04-04T22:19:14.061Z,6.40
2023-04-04T22:24:26.027Z,6.40
2023-04-04T22:29:32.875Z,6.30
2023-04-04T22:35:00.754Z,6.40
2023-04-04T22:40:05.720Z,6.30
2023-04-04T22:45:10.847Z,6.30
2023-04-04T22:50:52.909Z,6.30
2023-04-04T22:56:02.893Z,6.30
2023-04-04T23:01:07.340Z,6.30
2023-04-04T23:06:14.900Z,6.40
2023-04-04T23:11:24.787Z,6.30
2023-04-04T23:16:36.602Z,6.30
2023-04-04T23:21:51.130Z,6.30
2023-04-04T23:26:56.909Z,6.30
2023-04-04T23:32:03.947Z,6.20
2023-04-04T23:37:13.507Z,6.10
2023-04-04T23:42:27.106Z,6.10
2023-04-04T23:47:36.752Z,6.00
2023-04-04T23:52:40.893Z,6.00
2023-04-04T23:57:52.457Z,6.00
